Time;durP1;ratioP1;P1;durP2;ratioP2;P2;SDS_P1;SDS_P2;PMS_P1;PMS_P2;Temp;Humidity;BMP_temperature;BMP_pressure;BME280_temperature;BME280_humidity;BME280_pressure;Samples;Min_cycle;Max_cycle;Signal;HPM_P1;HPM_P2
2021/03/23 00:01:16;;;;;;;3.75;3.10;;;;;;;-0.91;64.25;99489.73;1797770;79;21273;-69
2021/03/23 00:03:47;;;;;;;4.22;2.92;;;;;;;-0.93;64.22;99485.92;1766586;81;21440;-69
2021/03/23 00:06:19;;;;;;;7.40;3.27;;;;;;;-0.95;64.25;99488.09;1797702;79;21016;-68
2021/03/23 00:08:50;;;;;;;4.33;3.30;;;;;;;-0.96;64.27;99485.13;1797724;79;20946;-69
2021/03/23 00:11:22;;;;;;;3.77;2.80;;;;;;;-0.98;64.26;99485.59;1766578;80;20930;-68
2021/03/23 00:13:54;;;;;;;3.75;2.98;;;;;;;-1.02;64.24;99482.25;1797702;79;21005;-70
2021/03/23 00:16:25;;;;;;;3.47;2.70;;;;;;;-1.05;64.43;99488.26;1797661;79;21056;-69
2021/03/23 00:18:53;;;;;;;4.42;3.12;;;;;;;-1.07;64.48;99487.44;1797718;79;21614;-69
2021/03/23 00:21:22;;;;;;;3.40;3.08;;;;;;;-1.08;64.52;99490.02;1797799;79;20993;-69
2021/03/23 00:23:51;;;;;;;4.62;3.10;;;;;;;-1.11;64.66;99488.80;1797744;79;20965;-69
2021/03/23 00:26:19;;;;;;;6.25;3.50;;;;;;;-1.15;64.81;99486.73;1797699;79;22158;-70
2021/03/23 00:28:48;;;;;;;5.95;3.62;;;;;;;-1.17;65.02;99493.58;1797636;79;20945;-69
2021/03/23 00:31:19;;;;;;;5.15;3.17;;;;;;;-1.19;65.30;99485.09;1766599;81;20933;-69
2021/03/23 00:33:49;;;;;;;5.97;3.37;;;;;;;-1.22;65.58;99483.90;1795696;79;20950;-69
2021/03/23 00:36:20;;;;;;;5.22;3.55;;;;;;;-1.25;65.88;99486.50;1797729;79;20950;-69
2021/03/23 00:38:48;;;;;;;6.03;3.92;;;;;;;-1.28;66.17;99481.45;1797716;79;21205;-69
2021/03/23 00:41:17;;;;;;;4.55;3.45;;;;;;;-1.31;66.41;99481.50;1766390;80;20949;-69
2021/03/23 00:43:45;;;;;;;5.58;3.90;;;;;;;-1.35;66.67;99484.53;1796937;79;21029;-69
2021/03/23 00:46:13;;;;;;;7.03;3.80;;;;;;;-1.39;66.87;99488.44;1793881;80;21423;-70
2021/03/23 00:48:42;;;;;;;5.42;3.67;;;;;;;-1.44;66.94;99487.23;1847712;77;21188;-69
2021/03/23 00:51:10;;;;;;;5.55;3.70;;;;;;;-1.46;67.04;99491.52;1778799;80;21927;-70
2021/03/23 00:53:40;;;;;;;7.12;3.98;;;;;;;-1.49;67.12;99490.29;1788104;80;20966;-70
2021/03/23 00:56:08;;;;;;;5.25;3.85;;;;;;;-1.51;67.29;99485.64;1778860;80;21519;-70
2021/03/23 00:58:36;;;;;;;6.47;4.30;;;;;;;-1.52;67.38;99482.67;1788264;80;20993;-70
2021/03/23 01:01:04;;;;;;;10.53;4.10;;;;;;;-1.53;67.48;99487.81;1778839;80;21013;-70
2021/03/23 01:03:33;;;;;;;5.75;3.83;;;;;;;-1.55;67.47;99489.11;1788153;80;22187;-70
2021/03/23 01:06:02;;;;;;;6.83;3.87;;;;;;;-1.56;67.57;99489.13;1778766;80;21017;-70
2021/03/23 01:08:30;;;;;;;4.67;3.92;;;;;;;-1.58;67.64;99490.87;1788224;80;20930;-69
2021/03/23 01:10:58;;;;;;;6.70;3.77;;;;;;;-1.59;67.74;99490.45;1778736;80;20982;-70
2021/03/23 01:13:27;;;;;;;7.35;4.53;;;;;;;-1.60;67.79;99492.63;1788243;80;20958;-69
2021/03/23 01:15:58;;;;;;;7.50;4.47;;;;;;;-1.62;67.89;99482.87;1778768;80;21432;-69
2021/03/23 01:18:27;;;;;;;8.23;3.65;;;;;;;-1.64;67.98;99486.73;1788150;80;21622;-69
2021/03/23 01:20:55;;;;;;;7.42;4.37;;;;;;;-1.64;68.05;99489.71;1847668;77;20967;-69
2021/03/23 01:23:24;;;;;;;8.75;4.25;;;;;;;-1.66;68.07;99492.72;1778855;80;21567;-69
2021/03/23 01:25:52;;;;;;;5.50;3.90;;;;;;;-1.69;68.19;99490.63;1778802;80;21475;-69
2021/03/23 01:28:20;;;;;;;7.65;4.15;;;;;;;-1.71;68.31;99490.23;1778804;80;22056;-69
2021/03/23 01:30:49;;;;;;;9.43;5.05;;;;;;;-1.73;68.29;99488.98;1788125;80;20981;-70
2021/03/23 01:33:18;;;;;;;7.58;4.70;;;;;;;-1.79;68.36;99488.23;1778947;80;20947;-70
2021/03/23 01:35:48;;;;;;;7.67;4.08;;;;;;;-1.82;68.47;99488.27;1788269;80;20958;-70
2021/03/23 01:38:16;;;;;;;7.40;4.03;;;;;;;-1.86;68.53;99486.62;1847976;77;20985;-70
2021/03/23 01:40:47;;;;;;;4.30;3.40;;;;;;;-1.91;68.64;99488.40;1847805;77;21188;-70
2021/03/23 01:43:25;;;;;;;7.17;3.72;;;;;;;-1.93;68.61;99490.13;1847753;77;20985;-69
2021/03/23 01:45:58;;;;;;;6.70;4.20;;;;;;;-1.97;68.60;99486.77;1840102;77;21009;-69
2021/03/23 01:48:32;;;;;;;7.45;3.67;;;;;;;-1.99;68.55;99488.94;1839580;78;20982;-69
2021/03/23 01:51:05;;;;;;;5.47;3.35;;;;;;;-2.05;68.46;99490.73;1763330;81;20982;-69
2021/03/23 01:53:41;;;;;;;6.12;3.27;;;;;;;-2.05;68.46;99490.73;1783324;80;21440;-69
2021/03/23 01:56:09;;;;;;;6.40;3.72;;;;;;;-2.07;68.53;99493.73;1839692;78;20935;-69
2021/03/23 01:58:41;;;;;;;7.33;3.67;;;;;;;-2.09;68.51;99498.45;1763116;81;20924;-69
2021/03/23 02:01:12;;;;;;;8.90;4.10;;;;;;;-2.12;68.57;99494.66;1783370;80;21520;-69
2021/03/23 02:03:42;;;;;;;6.60;4.28;;;;;;;-2.15;68.75;99498.52;1816883;78;20922;-69
2021/03/23 02:06:43;;;;;;;5.78;4.10;;;;;;;-2.18;68.85;99487.93;1763094;81;21257;-69
2021/03/23 02:09:21;;;;;;;5.40;3.67;;;;;;;-2.21;68.85;99487.97;1783317;80;21006;-69
2021/03/23 02:12:00;;;;;;;6.78;4.30;;;;;;;-2.25;68.87;99490.15;1763158;81;20927;-68
2021/03/23 02:14:33;;;;;;;6.00;3.90;;;;;;;-2.25;68.98;99498.23;1783307;80;20958;-68
2021/03/23 02:17:22;;;;;;;6.85;4.40;;;;;;;-2.26;68.94;99494.84;1783371;80;20899;-69
2021/03/23 02:19:58;;;;;;;6.87;3.80;;;;;;;-2.27;68.84;99494.42;1831561;78;21968;-69
2021/03/23 02:22:35;;;;;;;6.62;4.15;;;;;;;-2.28;68.97;99499.55;1839630;78;21026;-70
2021/03/23 02:25:08;;;;;;;7.42;4.35;;;;;;;-2.30;69.10;99499.56;1763107;81;20946;-69
2021/03/23 02:27:36;;;;;;;5.65;3.87;;;;;;;-2.29;69.15;99498.70;1783425;80;21563;-69
2021/03/23 02:30:05;;;;;;;5.95;4.10;;;;;;;-2.29;69.09;99501.68;1839671;78;21562;-69
2021/03/23 02:32:34;;;;;;;8.95;4.62;;;;;;;-2.30;69.11;99495.73;1763119;81;21477;-69
2021/03/23 02:35:03;;;;;;;6.90;4.78;;;;;;;-2.32;69.16;99500.01;1783221;80;21040;-69
2021/03/23 02:37:32;;;;;;;5.85;4.28;;;;;;;-2.34;69.08;99496.63;1839537;78;21570;-69
2021/03/23 02:40:00;;;;;;;7.60;4.62;;;;;;;-2.35;69.04;99498.34;1763047;81;20966;-69
2021/03/23 02:42:28;;;;;;;6.40;4.40;;;;;;;-2.36;69.03;99494.10;1783311;80;20934;-69
2021/03/23 02:44:57;;;;;;;6.08;4.15;;;;;;;-2.37;68.93;99496.67;1785381;80;22090;-69
2021/03/23 02:47:25;;;;;;;8.50;4.47;;;;;;;-2.39;68.98;99494.14;1847733;77;21578;-69
2021/03/23 02:49:53;;;;;;;8.70;4.87;;;;;;;-2.40;68.93;99495.00;1778862;80;20946;-69
2021/03/23 02:52:22;;;;;;;9.20;4.33;;;;;;;-2.40;68.91;99498.83;1778874;80;20946;-70
2021/03/23 02:54:50;;;;;;;7.42;4.53;;;;;;;-2.42;68.97;99495.48;1788306;80;21603;-69
2021/03/23 02:57:19;;;;;;;9.55;4.60;;;;;;;-2.43;68.96;99498.89;1778905;80;21044;-68
2021/03/23 02:59:49;;;;;;;6.28;4.20;;;;;;;-2.43;69.05;99501.88;1788242;80;20954;-69
2021/03/23 03:02:17;;;;;;;6.22;3.72;;;;;;;-2.46;69.06;99500.63;1847763;77;20970;-69
2021/03/23 03:04:45;;;;;;;6.35;4.53;;;;;;;-2.49;69.14;99496.84;1778907;80;21571;-69
2021/03/23 03:07:14;;;;;;;5.00;3.75;;;;;;;-2.50;69.19;99497.70;1778897;80;20954;-69
2021/03/23 03:09:44;;;;;;;5.47;3.65;;;;;;;-2.51;69.23;99498.56;1788369;80;22081;-69
2021/03/23 03:12:14;;;;;;;6.60;3.87;;;;;;;-2.55;69.30;99501.58;1847765;77;21045;-69
2021/03/23 03:14:42;;;;;;;5.00;3.50;;;;;;;-2.56;69.37;99493.95;1847713;77;20910;-69
2021/03/23 03:17:10;;;;;;;5.67;3.90;;;;;;;-2.59;69.50;99492.28;1847726;77;20922;-68
2021/03/23 03:19:39;;;;;;;3.95;3.55;;;;;;;-2.61;69.47;99502.92;1847765;77;20919;-69
2021/03/23 03:22:08;;;;;;;5.37;3.72;;;;;;;-2.61;69.57;99511.00;1843141;77;21378;-69
2021/03/23 03:24:36;;;;;;;4.85;3.17;;;;;;;-2.63;69.72;99507.63;1812735;79;21432;-69
2021/03/23 03:27:07;;;;;;;5.53;3.20;;;;;;;-2.63;69.85;99505.92;1812776;79;20954;-70
2021/03/23 03:29:36;;;;;;;10.00;7.45;;;;;;;-2.62;69.88;99511.86;1746419;82;20962;-69
2021/03/23 03:32:06;;;;;;;16.97;10.40;;;;;;;-2.61;69.97;99499.53;1755518;81;21026;-70
2021/03/23 03:34:35;;;;;;;10.32;6.80;;;;;;;-2.58;70.00;99508.41;1746550;82;22071;-70
2021/03/23 03:37:04;;;;;;;6.33;4.92;;;;;;;-2.57;70.00;99497.36;1755422;81;21611;-69
2021/03/23 03:39:33;;;;;;;5.65;3.98;;;;;;;-2.57;69.93;99505.85;1746387;82;21073;-70
2021/03/23 03:42:01;;;;;;;5.67;3.40;;;;;;;-2.60;69.96;99507.16;1755450;81;21504;-69
2021/03/23 03:44:29;;;;;;;5.67;3.50;;;;;;;-2.59;70.01;99515.65;1749388;80;21586;-70
2021/03/23 03:46:59;;;;;;;5.12;3.77;;;;;;;-2.60;69.99;99516.52;1750238;80;21665;-70
2021/03/23 03:49:28;;;;;;;5.17;4.33;;;;;;;-2.61;70.01;99514.39;1748011;80;20986;-70
2021/03/23 03:51:56;;;;;;;5.75;4.05;;;;;;;-2.62;69.94;99517.80;1809960;78;21013;-70
2021/03/23 03:54:25;;;;;;;5.80;3.65;;;;;;;-2.63;69.96;99519.09;1794587;78;20969;-70
2021/03/23 03:56:53;;;;;;;4.58;3.52;;;;;;;-2.63;69.94;99512.72;1789781;78;21009;-70
2021/03/23 03:59:22;;;;;;;8.13;3.90;;;;;;;-2.62;69.97;99520.78;1743589;81;21273;-70
2021/03/23 04:01:50;;;;;;;4.70;3.30;;;;;;;-2.62;69.95;99516.53;1742503;80;21001;-70
2021/03/23 04:04:19;;;;;;;5.12;3.70;;;;;;;-2.61;70.03;99519.92;1796310;78;20969;-71
2021/03/23 04:06:48;;;;;;;7.70;3.70;;;;;;;-2.58;69.96;99522.00;1754981;80;21622;-71
2021/03/23 04:09:16;;;;;;;4.55;3.62;;;;;;;-2.58;69.94;99524.98;1805562;78;21006;-71
2021/03/23 04:11:45;;;;;;;4.92;3.77;;;;;;;-2.59;69.89;99529.23;1803688;78;21347;-71
2021/03/23 04:14:13;;;;;;;5.35;4.33;;;;;;;-2.57;69.89;99526.67;1727809;81;21001;-71
2021/03/23 04:16:42;;;;;;;6.62;4.60;;;;;;;-2.56;69.85;99527.93;1755774;81;20985;-70
2021/03/23 04:19:10;;;;;;;5.47;3.77;;;;;;;-2.53;69.74;99523.23;1755656;81;20897;-71
2021/03/23 04:21:39;;;;;;;6.37;4.00;;;;;;;-2.49;69.66;99526.16;1755771;81;20901;-70
2021/03/23 04:24:08;;;;;;;6.92;3.67;;;;;;;-2.45;69.59;99523.98;1755781;81;21189;-70
2021/03/23 04:26:36;;;;;;;7.62;4.00;;;;;;;-2.39;69.46;99526.01;1755665;81;20996;-71
2021/03/23 04:29:05;;;;;;;7.62;4.17;;;;;;;-2.35;69.43;99526.39;1755714;81;21152;-70
2021/03/23 04:31:37;;;;;;;6.60;3.60;;;;;;;-2.30;69.50;99527.61;1755689;81;21044;-70
2021/03/23 04:34:06;;;;;;;5.60;3.92;;;;;;;-2.26;69.54;99531.81;1755865;81;20961;-70
2021/03/23 04:36:35;;;;;;;6.42;4.42;;;;;;;-2.19;69.73;99537.25;1756079;81;22082;-70
2021/03/23 04:39:06;;;;;;;6.90;4.50;;;;;;;-2.08;69.72;99531.59;1755916;80;21005;-70
2021/03/23 04:41:35;;;;;;;5.87;3.95;;;;;;;-1.96;69.51;99534.81;1755959;81;21002;-71
2021/03/23 04:44:04;;;;;;;8.83;4.72;;;;;;;-1.82;69.19;99541.42;1755957;81;21025;-70
2021/03/23 04:46:32;;;;;;;4.10;3.60;;;;;;;-1.64;68.62;99540.33;1756005;81;21037;-70
2021/03/23 04:49:01;;;;;;;10.18;5.50;;;;;;;-1.43;68.60;99538.71;1741947;81;21195;-71
2021/03/23 04:51:30;;;;;;;10.00;5.45;;;;;;;-1.13;67.96;99541.63;1759111;81;21010;-71
2021/03/23 04:54:04;;;;;;;16.12;5.60;;;;;;;-0.83;67.05;99544.11;1758821;81;20994;-71
2021/03/23 04:56:37;;;;;;;8.75;5.30;;;;;;;-0.58;66.06;99542.77;1742427;80;21040;-71
2021/03/23 04:59:05;;;;;;;9.45;5.67;;;;;;;-0.32;64.88;99543.53;1797783;78;21292;-71
2021/03/23 05:01:34;;;;;;;11.75;6.30;;;;;;;-0.12;64.36;99545.27;1745973;80;21299;-71
2021/03/23 05:04:06;;;;;;;9.43;4.92;;;;;;;0.11;63.81;99543.48;1787723;78;21001;-71
2021/03/23 05:06:35;;;;;;;13.03;6.72;;;;;;;0.38;62.40;99545.89;1809133;78;21037;-71
2021/03/23 05:09:04;;;;;;;8.23;4.55;;;;;;;0.60;60.89;99556.03;1805229;78;21559;-71
2021/03/23 05:11:33;;;;;;;8.15;4.75;;;;;;;0.73;60.71;99557.88;1738132;82;21017;-71
2021/03/23 05:14:02;;;;;;;6.37;4.30;;;;;;;0.93;59.88;99558.66;1811484;78;21749;-71
2021/03/23 05:16:32;;;;;;;24.95;13.22;;;;;;;1.09;58.87;99559.13;1796680;78;21565;-71
2021/03/23 05:19:01;;;;;;;31.37;16.07;;;;;;;1.17;57.86;99562.34;1727978;81;20907;-71
2021/03/23 05:21:29;;;;;;;11.60;6.92;;;;;;;1.22;58.00;99560.47;1725995;82;21006;-71
2021/03/23 05:24:00;;;;;;;9.93;5.47;;;;;;;1.29;56.81;99560.72;1796730;79;21326;-71
2021/03/23 05:26:29;;;;;;;9.83;5.90;;;;;;;1.28;56.72;99561.16;1753889;81;22088;-70
2021/03/23 05:28:57;;;;;;;8.50;5.78;;;;;;;1.33;56.77;99568.30;1788341;80;21446;-70
2021/03/23 05:31:26;;;;;;;8.05;4.33;;;;;;;1.40;56.26;99560.00;1753747;81;20995;-70
2021/03/23 05:33:55;;;;;;;7.83;4.30;;;;;;;1.51;56.05;99566.98;1790824;79;21070;-70
2021/03/23 05:36:24;;;;;;;10.85;4.90;;;;;;;1.61;55.65;99560.69;1729217;81;21572;-70
2021/03/23 05:38:53;;;;;;;6.03;4.37;;;;;;;1.72;55.34;99566.82;1777583;80;21346;-70
2021/03/23 05:41:43;;;;;;;7.62;4.90;;;;;;;1.75;54.66;99562.05;1727168;82;21531;-71
2021/03/23 05:44:28;;;;;;;9.90;5.80;;;;;;;1.63;55.08;99566.63;1783556;79;20943;-70
2021/03/23 05:46:57;;;;;;;7.20;4.30;;;;;;;1.57;55.22;99573.67;1752072;80;21037;-69
2021/03/23 05:49:40;;;;;;;6.25;4.53;;;;;;;1.47;54.48;99578.64;1775289;79;20989;-69
2021/03/23 05:52:29;;;;;;;7.35;4.70;;;;;;;1.28;54.68;99584.24;1794937;79;21354;-69
2021/03/23 05:55:18;;;;;;;7.35;4.65;;;;;;;1.09;55.49;99575.34;1785899;79;20938;-69
2021/03/23 05:57:49;;;;;;;8.78;4.10;;;;;;;1.00;56.33;99576.85;1803646;77;21011;-69
2021/03/23 06:00:25;;;;;;;8.25;4.45;;;;;;;0.96;56.75;99585.05;1803115;77;21163;-70
2021/03/23 06:03:03;;;;;;;9.93;5.85;;;;;;;0.93;56.41;99587.69;1741393;80;21053;-72
2021/03/23 06:05:42;;;;;;;9.15;4.95;;;;;;;0.84;56.66;99590.91;1745306;81;22355;-69
2021/03/23 06:08:35;;;;;;;8.08;5.20;;;;;;;0.74;56.69;99591.59;1798548;77;22197;-70
2021/03/23 06:11:32;;;;;;;6.95;4.35;;;;;;;0.68;56.86;99589.60;1742832;81;20958;-70
2021/03/23 06:14:30;;;;;;;7.78;4.15;;;;;;;0.60;56.95;99589.33;1743742;81;21111;-70
2021/03/23 06:17:30;;;;;;;10.78;3.90;;;;;;;0.56;57.68;99588.16;1724227;79;21579;-71
2021/03/23 06:20:25;;;;;;;12.73;6.05;;;;;;;0.57;57.62;99584.28;1739628;79;21384;-70
2021/03/23 06:23:24;;;;;;;15.53;8.10;;;;;;;0.54;57.79;99587.34;1725176;80;21084;-71
2021/03/23 06:26:16;;;;;;;22.98;10.50;;;;;;;0.54;57.88;99592.03;1750808;79;21323;-70
2021/03/23 06:29:41;;;;;;;16.02;6.75;;;;;;;0.59;58.05;99594.05;1721393;81;21009;-70
2021/03/23 06:32:41;;;;;;;6.33;4.10;;;;;;;0.64;58.39;99590.11;1792683;77;20993;-70
2021/03/23 06:35:13;;;;;;;6.65;4.15;;;;;;;0.79;58.25;99591.05;1799846;79;21913;-69
2021/03/23 06:37:41;;;;;;;4.83;4.22;;;;;;;0.91;58.15;99589.88;1796042;79;21159;-75
2021/03/23 06:40:18;;;;;;;6.12;3.60;;;;;;;1.03;58.12;99596.00;1797402;77;21005;-70
2021/03/23 06:42:54;;;;;;;4.33;3.05;;;;;;;1.22;57.87;99595.09;1859605;75;28250;-71
2021/03/23 06:45:36;;;;;;;12.00;6.70;;;;;;;1.26;57.20;99594.98;1775577;79;21138;-70
2021/03/23 06:48:28;;;;;;;7.65;4.10;;;;;;;1.28;57.04;99597.06;1759454;80;22161;-75
2021/03/23 06:51:11;;;;;;;5.78;3.42;;;;;;;1.33;56.72;99591.38;1756635;80;21053;-70
2021/03/23 06:53:40;;;;;;;4.75;3.70;;;;;;;1.45;56.98;99589.39;1754259;80;21030;-71
2021/03/23 06:56:26;;;;;;;5.33;3.10;;;;;;;1.75;57.60;99595.41;1766665;80;21052;-71
2021/03/23 06:59:18;;;;;;;;;;;;;;;2.09;56.56;99589.72;1766898;80;21013;-71
2021/03/23 07:01:50;;;;;;;12.30;5.55;;;;;;;2.34;54.60;99589.86;1779206;80;21250;-71
2021/03/23 07:04:30;;;;;;;13.05;6.60;;;;;;;2.42;53.98;99590.45;1783842;80;20974;-70
2021/03/23 07:07:20;;;;;;;7.22;4.12;;;;;;;2.49;54.04;99593.69;1776695;79;21069;-68
2021/03/23 07:09:58;;;;;;;8.63;3.87;;;;;;;2.75;54.01;99596.75;1794523;78;21609;-72
2021/03/23 07:12:41;;;;;;;14.23;6.72;;;;;;;3.14;52.44;99598.48;1792330;78;21020;-70
2021/03/23 07:15:17;;;;;;;14.85;6.67;;;;;;;3.38;52.28;99600.67;1799720;78;21379;-69
2021/03/23 07:17:48;;;;;;;;;;;;;;;3.61;51.23;99600.27;1791364;78;22199;-72
2021/03/23 07:20:38;;;;;;;5.20;3.22;;;;;;;3.73;50.59;99595.14;1781932;80;20698;-71
2021/03/23 07:23:40;;;;;;;3.22;2.45;;;;;;;3.84;50.37;99598.64;1773214;80;21246;-71
2021/03/23 07:26:31;;;;;;;3.85;2.62;;;;;;;3.95;49.75;99590.92;1788851;79;21025;-69
2021/03/23 07:29:12;;;;;;;13.90;6.20;;;;;;;4.05;48.97;99598.30;1755413;80;21844;-74
2021/03/23 07:32:08;;;;;;;8.88;3.67;;;;;;;3.97;49.16;99596.02;1749761;80;21674;-70
2021/03/23 07:35:14;;;;;;;4.83;2.60;;;;;;;3.94;48.27;99597.42;1766367;80;21082;-71
2021/03/23 07:38:09;;;;;;;;;;;;;;;3.81;47.85;99600.03;1772091;80;21069;-71
2021/03/23 07:40:45;;;;;;;16.95;8.15;;;;;;;3.68;48.58;99604.31;1779579;80;20186;-73
2021/03/23 07:43:49;;;;;;;12.30;6.60;;;;;;;3.54;47.89;99608.28;1812229;78;22231;-70
2021/03/23 07:46:42;;;;;;;7.67;4.67;;;;;;;3.37;48.90;99604.14;1834116;77;21079;-70
2021/03/23 07:49:47;;;;;;;8.78;3.55;;;;;;;3.30;49.96;99610.78;1843994;77;21091;-69
2021/03/23 07:52:34;;;;;;;3.10;2.80;;;;;;;3.29;50.47;99609.54;1837407;77;21107;-70
2021/03/23 07:55:03;;;;;;;4.70;2.95;;;;;;;3.27;50.33;99598.45;1840307;77;21526;-70
2021/03/23 07:58:15;;;;;;;12.10;7.03;;;;;;;3.13;50.87;99604.52;1841747;77;21985;-69
2021/03/23 08:01:02;;;;;;;5.90;3.67;;;;;;;3.07;50.83;99604.27;1814765;78;21017;-69
2021/03/23 08:04:14;;;;;;;7.50;3.70;;;;;;;2.95;51.31;99609.80;1810143;78;21005;-69
2021/03/23 08:07:04;;;;;;;13.18;7.95;;;;;;;2.81;51.49;99606.81;1797835;78;20971;-70
2021/03/23 08:10:01;;;;;;;18.32;8.70;;;;;;;2.65;51.17;99602.17;1835300;77;21399;-69
2021/03/23 08:13:07;;;;;;;15.45;7.87;;;;;;;2.52;51.80;99609.85;1833439;77;21502;-69
2021/03/23 08:15:56;;;;;;;17.32;8.20;;;;;;;2.39;52.09;99602.14;1847952;77;21331;-70
2021/03/23 08:18:45;;;;;;;6.15;3.92;;;;;;;2.35;52.46;99591.55;1845055;77;20976;-70
2021/03/23 08:21:34;;;;;;;11.10;5.72;;;;;;;2.36;52.58;99602.67;1844306;77;21581;-70
2021/03/23 08:24:16;;;;;;;9.10;4.58;;;;;;;2.30;52.39;99601.96;1792915;77;21123;-68
2021/03/23 08:27:27;;;;;;;6.25;3.85;;;;;;;2.19;53.01;99608.28;1843864;77;21319;-70
2021/03/23 08:30:35;;;;;;;8.05;4.30;;;;;;;2.05;52.89;99599.68;1838872;77;21119;-69
2021/03/23 08:33:54;;;;;;;8.40;4.08;;;;;;;1.85;53.89;99608.41;1839779;77;20946;-68
2021/03/23 08:37:18;;;;;;;4.80;3.50;;;;;;;1.73;54.53;99606.16;1839650;77;21628;-71
2021/03/23 08:40:16;;;;;;;6.28;3.67;;;;;;;1.72;54.47;99608.33;1788693;78;21072;-69
2021/03/23 08:42:47;;;;;;;35.13;15.13;;;;;;;1.68;53.93;99603.72;1776737;79;22233;-70
2021/03/23 08:45:24;;;;;;;61.98;26.70;;;;;;;1.74;54.42;99611.25;1766903;80;21024;-69
2021/03/23 08:48:19;;;;;;;64.07;27.77;;;;;;;1.92;54.16;99604.78;1772683;80;21053;-68
2021/03/23 08:50:48;;;;;;;12.23;7.12;;;;;;;2.09;54.42;99594.86;1741297;80;21193;-67
2021/03/23 08:53:37;;;;;;;3.22;2.90;;;;;;;2.27;53.11;99596.06;1770257;80;21561;-68
2021/03/23 08:56:12;;;;;;;9.93;5.62;;;;;;;2.27;53.10;99599.92;1816378;77;21761;-68
2021/03/23 08:58:54;;;;;;;17.85;9.30;;;;;;;2.12;52.86;99595.22;1820238;77;21211;-67
2021/03/23 09:01:40;;;;;;;17.70;9.00;;;;;;;1.92;53.20;99608.64;1817246;77;21057;-68
2021/03/23 09:04:24;;;;;;;7.05;4.12;;;;;;;1.74;53.14;99607.41;1823262;77;21020;-69
2021/03/23 09:07:00;;;;;;;9.40;4.72;;;;;;;1.65;53.41;99607.20;1822105;77;20921;-70
2021/03/23 09:09:36;;;;;;;18.48;9.03;;;;;;;1.67;53.23;99612.30;1823020;77;22284;-68
2021/03/23 09:12:11;;;;;;;15.05;7.78;;;;;;;1.66;53.26;99606.32;1819074;77;21065;-72
2021/03/23 09:15:02;;;;;;;19.37;9.70;;;;;;;1.71;52.61;99610.05;1823502;77;21179;-69
2021/03/23 09:18:02;;;;;;;20.25;8.35;;;;;;;1.80;52.98;99603.83;1827222;77;20985;-69
2021/03/23 09:20:38;;;;;;;8.70;4.80;;;;;;;1.99;53.26;99600.73;1811465;77;21130;-71
2021/03/23 09:23:23;;;;;;;6.28;4.65;;;;;;;2.08;52.54;99597.47;1813708;77;21204;-73
2021/03/23 09:26:01;;;;;;;14.85;9.18;;;;;;;2.05;52.10;99602.69;1783670;79;21535;-71
2021/03/23 09:28:40;;;;;;;7.85;3.95;;;;;;;1.99;52.47;99603.30;1775013;80;21017;-70
2021/03/23 09:31:30;;;;;;;9.93;5.83;;;;;;;1.91;51.96;99605.67;1771191;80;21068;-72
2021/03/23 09:33:58;;;;;;;14.58;5.85;;;;;;;1.81;52.75;99601.23;1767654;80;21065;-69
2021/03/23 09:36:45;;;;;;;11.22;5.28;;;;;;;1.86;52.88;99613.94;1815523;77;21674;-71
2021/03/23 09:39:22;;;;;;;15.38;5.50;;;;;;;1.87;52.27;99594.64;1821396;77;21040;-71
2021/03/23 09:41:55;;;;;;;5.95;3.35;;;;;;;1.93;51.96;99599.61;1821187;77;21036;-70
2021/03/23 09:44:31;;;;;;;8.30;4.45;;;;;;;1.96;51.73;99592.27;1823332;77;21015;-71
2021/03/23 09:47:00;;;;;;;4.17;2.90;;;;;;;2.03;51.29;99587.77;1830289;77;21217;-70
2021/03/23 09:49:47;;;;;;;3.85;2.47;;;;;;;2.19;50.63;99592.88;1826597;77;22179;-69
2021/03/23 09:52:19;;;;;;;4.47;2.92;;;;;;;2.25;49.66;99586.28;1825615;77;21006;-70
2021/03/23 09:55:00;;;;;;;4.53;3.10;;;;;;;2.11;50.14;99590.97;1830090;77;21069;-70
2021/03/23 09:57:31;;;;;;;3.70;2.85;;;;;;;2.01;51.05;99597.64;1827848;77;21111;-70
2021/03/23 10:00:01;;;;;;;6.20;3.02;;;;;;;2.00;51.76;99593.83;1791433;79;20993;-69
2021/03/23 10:02:37;;;;;;;9.85;4.53;;;;;;;2.06;52.10;99594.11;1764795;79;21543;-69
2021/03/23 10:05:30;;;;;;;4.62;3.70;;;;;;;2.15;52.41;99593.41;1791398;79;21037;-69
2021/03/23 10:08:17;;;;;;;5.10;3.95;;;;;;;2.24;52.05;99593.59;1782472;79;21048;-69
2021/03/23 10:10:47;;;;;;;5.03;4.08;;;;;;;2.34;51.13;99588.14;1789357;78;21124;-69
2021/03/23 10:13:29;;;;;;;5.78;3.10;;;;;;;2.39;51.43;99594.43;1787269;79;21192;-68
2021/03/23 10:16:05;;;;;;;4.85;2.50;;;;;;;2.50;50.38;99591.06;1750092;80;21212;-69
2021/03/23 10:18:39;;;;;;;5.42;2.90;;;;;;;2.54;49.04;99590.09;1782678;79;20955;-68
2021/03/23 10:21:12;;;;;;;6.25;3.52;;;;;;;2.50;48.68;99597.94;1775229;79;21102;-69
2021/03/23 10:23:52;;;;;;;4.80;2.40;;;;;;;2.45;48.28;99590.80;1775908;79;21650;-69
2021/03/23 10:26:25;;;;;;;6.90;3.22;;;;;;;2.47;48.14;99592.44;1778783;79;21064;-68
2021/03/23 10:29:13;;;;;;;5.25;2.50;;;;;;;2.55;48.34;99579.37;1764064;79;21208;-69
2021/03/23 10:31:55;;;;;;;3.20;2.10;;;;;;;2.68;47.98;99589.67;1765246;79;21121;-69
2021/03/23 10:34:27;;;;;;;3.35;2.80;;;;;;;2.76;46.02;99598.44;1757952;80;21492;-70
2021/03/23 10:37:03;;;;;;;2.87;2.33;;;;;;;2.74;46.65;99597.64;1763897;80;21065;-72
2021/03/23 10:39:43;;;;;;;4.05;2.70;;;;;;;2.65;45.95;99595.75;1770291;79;20994;-73
2021/03/23 10:42:30;;;;;;;5.10;2.60;;;;;;;2.63;46.41;99592.38;1785055;78;21349;-68
2021/03/23 10:45:28;;;;;;;2.92;2.70;;;;;;;2.62;49.12;99598.41;1748708;80;21693;-67
2021/03/23 10:48:20;;;;;;;2.80;2.60;;;;;;;2.66;50.16;99600.45;1794659;78;21104;-72
2021/03/23 10:51:20;;;;;;;5.55;2.47;;;;;;;2.80;50.30;99593.12;1764971;80;21001;-69
2021/03/23 10:54:08;;;;;;;6.75;2.30;;;;;;;2.88;48.24;99600.16;1775265;80;21661;-69
2021/03/23 10:56:51;;;;;;;3.75;2.50;;;;;;;2.84;49.43;99593.87;1795458;78;21271;-70
2021/03/23 10:59:33;;;;;;;4.60;2.58;;;;;;;2.70;50.48;99600.75;1772832;79;20962;-69
2021/03/23 11:02:20;;;;;;;6.33;2.77;;;;;;;2.57;49.73;99601.56;1793906;78;21635;-70
2021/03/23 11:05:08;;;;;;;10.53;6.40;;;;;;;2.51;49.47;99608.17;1793372;78;21033;-69
2021/03/23 11:07:47;;;;;;;7.87;5.55;;;;;;;2.50;49.09;99603.08;1791303;78;21152;-70
2021/03/23 11:10:21;;;;;;;10.75;5.20;;;;;;;2.50;47.34;99605.20;1798029;78;22451;-69
2021/03/23 11:12:54;;;;;;;8.93;5.85;;;;;;;2.58;48.69;99608.83;1801065;78;21053;-69
2021/03/23 11:15:23;;;;;;;11.63;5.00;;;;;;;2.68;48.89;99616.22;1787949;79;21021;-69
2021/03/23 11:17:53;;;;;;;2.77;2.50;;;;;;;2.73;49.01;99613.95;1812997;79;21187;-69
2021/03/23 11:20:38;;;;;;;2.85;2.02;;;;;;;2.68;49.48;99609.80;1775549;80;21390;-69
2021/03/23 11:26:14;;;;;;;5.97;2.50;;;;;;;2.54;48.71;99608.52;1795558;79;21076;-69
2021/03/23 11:28:46;;;;;;;3.35;2.12;;;;;;;2.39;49.22;99603.42;1773327;81;21021;-69
2021/03/23 11:31:18;;;;;;;9.80;5.15;;;;;;;2.40;49.72;99602.50;1764212;81;21117;-69
2021/03/23 11:33:50;;;;;;;7.45;3.67;;;;;;;2.54;49.55;99598.24;1770653;79;21040;-70
2021/03/23 11:36:20;;;;;;;6.80;3.10;;;;;;;2.63;48.99;99609.09;1774726;79;21813;-69
2021/03/23 11:38:50;;;;;;;10.68;3.90;;;;;;;2.69;50.03;99604.20;1783433;79;21690;-70
2021/03/23 11:41:31;;;;;;;6.47;4.55;;;;;;;2.68;50.53;99602.53;1777130;79;21007;-70
2021/03/23 11:44:21;;;;;;;6.25;4.03;;;;;;;2.72;49.87;99602.83;1775229;79;20990;-69
2021/03/23 11:46:57;;;;;;;5.10;2.98;;;;;;;2.75;48.21;99605.31;1726635;80;20979;-69
2021/03/23 11:49:49;;;;;;;5.33;2.95;;;;;;;2.80;48.23;99596.98;1758866;80;22231;-69
2021/03/23 11:52:19;;;;;;;2.67;2.33;;;;;;;2.90;47.64;99597.53;1747644;81;21093;-70
2021/03/23 11:54:47;;;;;;;6.08;3.67;;;;;;;2.93;47.69;99597.00;1762205;81;21132;-70
2021/03/23 11:57:17;;;;;;;3.20;2.37;;;;;;;2.96;46.86;99590.91;1777218;80;21021;-69
2021/03/23 11:59:46;;;;;;;13.83;3.90;;;;;;;2.93;46.72;99581.56;1747010;81;21053;-68
2021/03/23 12:02:15;;;;;;;3.80;2.77;;;;;;;2.91;46.36;99591.50;1751398;81;22243;-68
2021/03/23 12:04:47;;;;;;;6.35;3.35;;;;;;;2.87;45.90;99590.75;1755871;81;21002;-69
2021/03/23 12:07:43;;;;;;;8.88;3.20;;;;;;;2.81;46.08;99592.68;1764133;80;21120;-68
2021/03/23 12:10:38;;;;;;;6.25;3.65;;;;;;;2.75;46.53;99583.45;1736615;81;21063;-70
2021/03/23 12:13:51;;;;;;;5.80;2.75;;;;;;;2.73;46.28;99585.23;1774859;80;21119;-71
2021/03/23 12:16:51;;;;;;;9.85;4.10;;;;;;;2.77;47.41;99577.82;1774367;80;21379;-70
2021/03/23 12:19:24;;;;;;;8.45;5.12;;;;;;;2.92;47.35;99583.74;1745053;81;21053;-69
2021/03/23 12:21:54;;;;;;;5.30;4.10;;;;;;;2.99;46.69;99591.66;1777099;80;21008;-71
2021/03/23 12:24:23;;;;;;;3.10;2.60;;;;;;;3.03;45.84;99602.69;1726675;81;21054;-70
2021/03/23 12:26:52;;;;;;;2.40;2.20;;;;;;;3.04;45.98;99587.66;1758453;81;21212;-71